sensor_id;sensor_type;location;lat;lon;timestamp;P1;durP1;ratioP1;P2;durP2;ratioP2
3993;SDS011;2011;48.238;13.948;2023-06-19T00:00:02;22.50;;;9.63;;
3993;SDS011;2011;48.238;13.948;2023-06-19T00:02:37;12.13;;;8.63;;
3993;SDS011;2011;48.238;13.948;2023-06-19T00:05:05;14.23;;;10.07;;
3993;SDS011;2011;48.238;13.948;2023-06-19T00:07:33;14.33;;;10.10;;
3993;SDS011;2011;48.238;13.948;2023-06-19T00:10:00;13.63;;;9.53;;
3993;SDS011;2011;48.238;13.948;2023-06-19T00:12:27;20.00;;;9.13;;
3993;SDS011;2011;48.238;13.948;2023-06-19T00:14:54;12.73;;;8.70;;
3993;SDS011;2011;48.238;13.948;2023-06-19T00:17:23;14.37;;;9.50;;
3993;SDS011;2011;48.238;13.948;2023-06-19T00:19:51;15.33;;;8.97;;
3993;SDS011;2011;48.238;13.948;2023-06-19T00:22:18;17.63;;;10.93;;
3993;SDS011;2011;48.238;13.948;2023-06-19T00:24:45;16.40;;;10.23;;
3993;SDS011;2011;48.238;13.948;2023-06-19T00:27:12;14.43;;;9.80;;
3993;SDS011;2011;48.238;13.948;2023-06-19T00:29:39;13.13;;;8.87;;
3993;SDS011;2011;48.238;13.948;2023-06-19T00:32:07;24.17;;;9.90;;
3993;SDS011;2011;48.238;13.948;2023-06-19T00:34:35;12.80;;;8.47;;
3993;SDS011;2011;48.238;13.948;2023-06-19T00:37:03;15.80;;;8.93;;
3993;SDS011;2011;48.238;13.948;2023-06-19T00:39:31;12.73;;;8.77;;
3993;SDS011;2011;48.238;13.948;2023-06-19T00:41:58;12.30;;;9.10;;
3993;SDS011;2011;48.238;13.948;2023-06-19T00:44:25;16.67;;;10.10;;
3993;SDS011;2011;48.238;13.948;2023-06-19T00:46:54;14.03;;;9.63;;
3993;SDS011;2011;48.238;13.948;2023-06-19T00:49:23;15.10;;;10.10;;
3993;SDS011;2011;48.238;13.948;2023-06-19T00:51:52;14.70;;;10.00;;
3993;SDS011;2011;48.238;13.948;2023-06-19T00:54:20;18.13;;;10.57;;
3993;SDS011;2011;48.238;13.948;2023-06-19T00:56:47;16.13;;;11.33;;
3993;SDS011;2011;48.238;13.948;2023-06-19T00:59:16;18.17;;;9.80;;
3993;SDS011;2011;48.238;13.948;2023-06-19T01:01:44;18.33;;;10.43;;
3993;SDS011;2011;48.238;13.948;2023-06-19T01:04:12;17.37;;;9.57;;
3993;SDS011;2011;48.238;13.948;2023-06-19T01:06:42;20.43;;;9.87;;
3993;SDS011;2011;48.238;13.948;2023-06-19T01:09:14;15.20;;;10.30;;
3993;SDS011;2011;48.238;13.948;2023-06-19T01:11:44;13.40;;;9.50;;
3993;SDS011;2011;48.238;13.948;2023-06-19T01:14:16;18.63;;;9.77;;
3993;SDS011;2011;48.238;13.948;2023-06-19T01:16:45;14.87;;;10.10;;
3993;SDS011;2011;48.238;13.948;2023-06-19T01:19:15;16.00;;;10.00;;
3993;SDS011;2011;48.238;13.948;2023-06-19T01:21:46;20.63;;;10.93;;
3993;SDS011;2011;48.238;13.948;2023-06-19T01:24:14;15.83;;;10.17;;
3993;SDS011;2011;48.238;13.948;2023-06-19T01:26:41;14.30;;;10.33;;
3993;SDS011;2011;48.238;13.948;2023-06-19T01:29:11;14.43;;;9.27;;
3993;SDS011;2011;48.238;13.948;2023-06-19T01:31:42;16.77;;;10.90;;
3993;SDS011;2011;48.238;13.948;2023-06-19T01:34:15;16.13;;;8.67;;
3993;SDS011;2011;48.238;13.948;2023-06-19T01:36:46;12.83;;;9.33;;
3993;SDS011;2011;48.238;13.948;2023-06-19T01:39:16;14.97;;;9.43;;
3993;SDS011;2011;48.238;13.948;2023-06-19T01:41:45;13.23;;;8.90;;
3993;SDS011;2011;48.238;13.948;2023-06-19T01:44:13;17.20;;;11.00;;
3993;SDS011;2011;48.238;13.948;2023-06-19T01:46:40;15.80;;;10.47;;
3993;SDS011;2011;48.238;13.948;2023-06-19T01:49:07;15.67;;;10.63;;
3993;SDS011;2011;48.238;13.948;2023-06-19T01:51:35;16.20;;;10.80;;
3993;SDS011;2011;48.238;13.948;2023-06-19T01:54:02;15.27;;;9.50;;
3993;SDS011;2011;48.238;13.948;2023-06-19T01:56:32;22.33;;;10.97;;
3993;SDS011;2011;48.238;13.948;2023-06-19T01:58:59;17.83;;;12.10;;
3993;SDS011;2011;48.238;13.948;2023-06-19T02:01:26;20.67;;;11.57;;
3993;SDS011;2011;48.238;13.948;2023-06-19T02:03:53;15.50;;;11.33;;
3993;SDS011;2011;48.238;13.948;2023-06-19T02:06:20;17.83;;;11.43;;
3993;SDS011;2011;48.238;13.948;2023-06-19T02:08:47;15.10;;;10.47;;
3993;SDS011;2011;48.238;13.948;2023-06-19T02:11:15;15.80;;;10.60;;
3993;SDS011;2011;48.238;13.948;2023-06-19T02:13:43;17.80;;;11.20;;
3993;SDS011;2011;48.238;13.948;2023-06-19T02:16:10;15.93;;;10.50;;
3993;SDS011;2011;48.238;13.948;2023-06-19T02:18:37;15.20;;;10.07;;
3993;SDS011;2011;48.238;13.948;2023-06-19T02:21:05;15.87;;;10.70;;
3993;SDS011;2011;48.238;13.948;2023-06-19T02:23:32;15.63;;;11.20;;
3993;SDS011;2011;48.238;13.948;2023-06-19T02:25:59;16.80;;;10.00;;
3993;SDS011;2011;48.238;13.948;2023-06-19T02:28:26;15.90;;;11.37;;
3993;SDS011;2011;48.238;13.948;2023-06-19T02:30:55;21.03;;;11.00;;
3993;SDS011;2011;48.238;13.948;2023-06-19T02:33:22;16.80;;;11.00;;
3993;SDS011;2011;48.238;13.948;2023-06-19T02:35:49;18.17;;;11.20;;
3993;SDS011;2011;48.238;13.948;2023-06-19T02:38:18;14.63;;;9.93;;
3993;SDS011;2011;48.238;13.948;2023-06-19T02:40:46;14.70;;;10.50;;
3993;SDS011;2011;48.238;13.948;2023-06-19T02:43:13;19.53;;;10.93;;
3993;SDS011;2011;48.238;13.948;2023-06-19T02:45:40;17.80;;;11.53;;
3993;SDS011;2011;48.238;13.948;2023-06-19T02:48:12;18.70;;;10.50;;
3993;SDS011;2011;48.238;13.948;2023-06-19T02:50:39;16.00;;;11.50;;
3993;SDS011;2011;48.238;13.948;2023-06-19T02:53:06;18.27;;;11.37;;
3993;SDS011;2011;48.238;13.948;2023-06-19T02:55:35;15.90;;;11.00;;
3993;SDS011;2011;48.238;13.948;2023-06-19T02:58:02;18.60;;;11.20;;
3993;SDS011;2011;48.238;13.948;2023-06-19T03:00:29;14.13;;;11.03;;
3993;SDS011;2011;48.238;13.948;2023-06-19T03:02:59;20.77;;;11.70;;
3993;SDS011;2011;48.238;13.948;2023-06-19T03:05:28;19.30;;;11.10;;
3993;SDS011;2011;48.238;13.948;2023-06-19T03:07:55;13.60;;;9.70;;
3993;SDS011;2011;48.238;13.948;2023-06-19T03:10:22;17.10;;;10.60;;
3993;SDS011;2011;48.238;13.948;2023-06-19T03:12:49;22.50;;;10.97;;
3993;SDS011;2011;48.238;13.948;2023-06-19T03:15:16;15.60;;;10.23;;
3993;SDS011;2011;48.238;13.948;2023-06-19T03:17:43;18.53;;;11.73;;
3993;SDS011;2011;48.238;13.948;2023-06-19T03:20:10;16.53;;;11.10;;
3993;SDS011;2011;48.238;13.948;2023-06-19T03:22:40;22.70;;;11.30;;
3993;SDS011;2011;48.238;13.948;2023-06-19T03:25:07;15.30;;;11.30;;
3993;SDS011;2011;48.238;13.948;2023-06-19T03:27:35;23.03;;;10.80;;
3993;SDS011;2011;48.238;13.948;2023-06-19T03:30:03;17.47;;;11.47;;
3993;SDS011;2011;48.238;13.948;2023-06-19T03:32:31;16.03;;;11.30;;
3993;SDS011;2011;48.238;13.948;2023-06-19T03:34:59;15.03;;;10.90;;
3993;SDS011;2011;48.238;13.948;2023-06-19T03:37:26;17.77;;;11.67;;
3993;SDS011;2011;48.238;13.948;2023-06-19T03:39:54;29.33;;;12.63;;
3993;SDS011;2011;48.238;13.948;2023-06-19T03:42:21;16.27;;;11.40;;
3993;SDS011;2011;48.238;13.948;2023-06-19T03:44:49;17.67;;;11.20;;
3993;SDS011;2011;48.238;13.948;2023-06-19T03:47:21;14.83;;;10.83;;
3993;SDS011;2011;48.238;13.948;2023-06-19T03:49:49;22.80;;;12.37;;
3993;SDS011;2011;48.238;13.948;2023-06-19T03:52:27;16.73;;;11.57;;
3993;SDS011;2011;48.238;13.948;2023-06-19T03:54:57;17.73;;;11.57;;
3993;SDS011;2011;48.238;13.948;2023-06-19T03:57:26;17.03;;;11.60;;
3993;SDS011;2011;48.238;13.948;2023-06-19T03:59:54;20.30;;;12.50;;
3993;SDS011;2011;48.238;13.948;2023-06-19T04:02:22;17.60;;;10.93;;
3993;SDS011;2011;48.238;13.948;2023-06-19T04:04:50;18.47;;;11.30;;
3993;SDS011;2011;48.238;13.948;2023-06-19T04:07:24;19.57;;;11.47;;
3993;SDS011;2011;48.238;13.948;2023-06-19T04:10:00;16.37;;;11.30;;
3993;SDS011;2011;48.238;13.948;2023-06-19T04:12:27;17.87;;;11.60;;
3993;SDS011;2011;48.238;13.948;2023-06-19T04:14:54;17.20;;;11.97;;
3993;SDS011;2011;48.238;13.948;2023-06-19T04:17:21;17.30;;;11.83;;
3993;SDS011;2011;48.238;13.948;2023-06-19T04:19:48;24.00;;;12.07;;
3993;SDS011;2011;48.238;13.948;2023-06-19T04:22:15;16.37;;;12.07;;
3993;SDS011;2011;48.238;13.948;2023-06-19T04:24:42;21.83;;;11.87;;
3993;SDS011;2011;48.238;13.948;2023-06-19T04:27:10;17.83;;;11.90;;
3993;SDS011;2011;48.238;13.948;2023-06-19T04:29:37;16.17;;;11.40;;
3993;SDS011;2011;48.238;13.948;2023-06-19T04:32:05;22.23;;;12.70;;
3993;SDS011;2011;48.238;13.948;2023-06-19T04:34:36;16.20;;;11.77;;
3993;SDS011;2011;48.238;13.948;2023-06-19T04:37:05;26.40;;;12.30;;
3993;SDS011;2011;48.238;13.948;2023-06-19T04:39:32;18.10;;;11.23;;
3993;SDS011;2011;48.238;13.948;2023-06-19T04:42:01;24.03;;;12.47;;
3993;SDS011;2011;48.238;13.948;2023-06-19T04:44:29;18.63;;;11.87;;
3993;SDS011;2011;48.238;13.948;2023-06-19T04:47:02;17.90;;;11.70;;
3993;SDS011;2011;48.238;13.948;2023-06-19T04:49:29;16.97;;;11.90;;
3993;SDS011;2011;48.238;13.948;2023-06-19T04:51:56;12.60;;;10.13;;
3993;SDS011;2011;48.238;13.948;2023-06-19T04:54:24;23.80;;;11.70;;
3993;SDS011;2011;48.238;13.948;2023-06-19T04:56:51;22.10;;;11.90;;
3993;SDS011;2011;48.238;13.948;2023-06-19T04:59:19;17.33;;;11.00;;
3993;SDS011;2011;48.238;13.948;2023-06-19T05:01:47;19.60;;;12.97;;
3993;SDS011;2011;48.238;13.948;2023-06-19T05:04:14;15.33;;;10.47;;
3993;SDS011;2011;48.238;13.948;2023-06-19T05:06:41;21.60;;;11.60;;
3993;SDS011;2011;48.238;13.948;2023-06-19T05:09:09;16.87;;;11.40;;
3993;SDS011;2011;48.238;13.948;2023-06-19T05:11:36;16.37;;;10.93;;
3993;SDS011;2011;48.238;13.948;2023-06-19T05:14:03;27.60;;;11.63;;
3993;SDS011;2011;48.238;13.948;2023-06-19T05:16:30;19.57;;;11.97;;
3993;SDS011;2011;48.238;13.948;2023-06-19T05:18:59;23.93;;;11.00;;
3993;SDS011;2011;48.238;13.948;2023-06-19T05:21:26;15.10;;;10.70;;
3993;SDS011;2011;48.238;13.948;2023-06-19T05:23:53;24.23;;;12.03;;
3993;SDS011;2011;48.238;13.948;2023-06-19T05:26:20;17.17;;;11.50;;
3993;SDS011;2011;48.238;13.948;2023-06-19T05:28:49;21.37;;;12.10;;
3993;SDS011;2011;48.238;13.948;2023-06-19T05:31:16;16.73;;;11.00;;
3993;SDS011;2011;48.238;13.948;2023-06-19T05:33:43;19.97;;;11.67;;
3993;SDS011;2011;48.238;13.948;2023-06-19T05:36:12;19.27;;;13.07;;
3993;SDS011;2011;48.238;13.948;2023-06-19T05:38:39;23.60;;;11.83;;
3993;SDS011;2011;48.238;13.948;2023-06-19T05:41:06;16.50;;;11.17;;
3993;SDS011;2011;48.238;13.948;2023-06-19T05:43:33;20.83;;;11.03;;
3993;SDS011;2011;48.238;13.948;2023-06-19T05:46:00;23.77;;;10.80;;
3993;SDS011;2011;48.238;13.948;2023-06-19T05:48:28;14.07;;;9.70;;
3993;SDS011;2011;48.238;13.948;2023-06-19T05:50:55;15.47;;;10.77;;
3993;SDS011;2011;48.238;13.948;2023-06-19T05:53:24;16.00;;;10.53;;
3993;SDS011;2011;48.238;13.948;2023-06-19T05:55:51;15.77;;;10.27;;
3993;SDS011;2011;48.238;13.948;2023-06-19T05:58:18;13.73;;;9.53;;
3993;SDS011;2011;48.238;13.948;2023-06-19T06:00:46;15.10;;;10.43;;
3993;SDS011;2011;48.238;13.948;2023-06-19T06:03:13;14.00;;;10.57;;
3993;SDS011;2011;48.238;13.948;2023-06-19T06:05:41;17.43;;;11.30;;
3993;SDS011;2011;48.238;13.948;2023-06-19T06:08:08;16.37;;;10.17;;
3993;SDS011;2011;48.238;13.948;2023-06-19T06:10:37;15.17;;;9.80;;
3993;SDS011;2011;48.238;13.948;2023-06-19T06:13:04;23.17;;;9.80;;
3993;SDS011;2011;48.238;13.948;2023-06-19T06:15:31;12.40;;;9.53;;
3993;SDS011;2011;48.238;13.948;2023-06-19T06:17:58;13.07;;;8.83;;
3993;SDS011;2011;48.238;13.948;2023-06-19T06:20:25;13.37;;;9.67;;
3993;SDS011;2011;48.238;13.948;2023-06-19T06:22:53;14.00;;;10.07;;
3993;SDS011;2011;48.238;13.948;2023-06-19T06:25:20;13.67;;;9.30;;
3993;SDS011;2011;48.238;13.948;2023-06-19T06:27:49;15.67;;;9.77;;
3993;SDS011;2011;48.238;13.948;2023-06-19T06:30:16;14.30;;;9.10;;
3993;SDS011;2011;48.238;13.948;2023-06-19T06:32:43;15.00;;;9.00;;
3993;SDS011;2011;48.238;13.948;2023-06-19T06:35:11;12.57;;;8.97;;
3993;SDS011;2011;48.238;13.948;2023-06-19T06:37:39;13.00;;;9.43;;
3993;SDS011;2011;48.238;13.948;2023-06-19T06:40:06;15.33;;;10.00;;
3993;SDS011;2011;48.238;13.948;2023-06-19T06:42:36;16.23;;;10.80;;
3993;SDS011;2011;48.238;13.948;2023-06-19T06:45:05;15.27;;;10.23;;
3993;SDS011;2011;48.238;13.948;2023-06-19T06:47:34;22.03;;;10.53;;
3993;SDS011;2011;48.238;13.948;2023-06-19T06:50:01;14.70;;;10.03;;
3993;SDS011;2011;48.238;13.948;2023-06-19T06:52:28;13.43;;;9.43;;
3993;SDS011;2011;48.238;13.948;2023-06-19T06:54:56;13.70;;;9.43;;
3993;SDS011;2011;48.238;13.948;2023-06-19T06:57:24;23.87;;;9.20;;
3993;SDS011;2011;48.238;13.948;2023-06-19T06:59:51;17.33;;;9.50;;
3993;SDS011;2011;48.238;13.948;2023-06-19T07:02:20;16.30;;;10.90;;
3993;SDS011;2011;48.238;13.948;2023-06-19T07:04:47;18.73;;;10.27;;
3993;SDS011;2011;48.238;13.948;2023-06-19T07:07:14;17.10;;;10.73;;
3993;SDS011;2011;48.238;13.948;2023-06-19T07:09:41;16.27;;;10.40;;
3993;SDS011;2011;48.238;13.948;2023-06-19T07:12:08;16.10;;;10.80;;
3993;SDS011;2011;48.238;13.948;2023-06-19T07:14:36;17.37;;;11.33;;
3993;SDS011;2011;48.238;13.948;2023-06-19T07:17:03;23.73;;;10.50;;
3993;SDS011;2011;48.238;13.948;2023-06-19T07:19:33;23.30;;;11.40;;
3993;SDS011;2011;48.238;13.948;2023-06-19T07:22:00;23.50;;;11.20;;
3993;SDS011;2011;48.238;13.948;2023-06-19T07:24:28;17.50;;;11.10;;
3993;SDS011;2011;48.238;13.948;2023-06-19T07:26:55;15.33;;;11.30;;
3993;SDS011;2011;48.238;13.948;2023-06-19T07:29:23;15.10;;;9.40;;
3993;SDS011;2011;48.238;13.948;2023-06-19T07:31:52;16.23;;;11.47;;
3993;SDS011;2011;48.238;13.948;2023-06-19T07:34:19;15.43;;;11.27;;
3993;SDS011;2011;48.238;13.948;2023-06-19T07:36:48;15.13;;;11.10;;
3993;SDS011;2011;48.238;13.948;2023-06-19T07:39:15;18.27;;;10.90;;
3993;SDS011;2011;48.238;13.948;2023-06-19T07:41:43;19.90;;;12.07;;
3993;SDS011;2011;48.238;13.948;2023-06-19T07:44:11;19.70;;;12.50;;
3993;SDS011;2011;48.238;13.948;2023-06-19T07:46:38;30.03;;;13.27;;
3993;SDS011;2011;48.238;13.948;2023-06-19T07:49:05;19.07;;;13.40;;
3993;SDS011;2011;48.238;13.948;2023-06-19T07:51:32;19.83;;;13.83;;
3993;SDS011;2011;48.238;13.948;2023-06-19T07:54:01;19.47;;;13.70;;
3993;SDS011;2011;48.238;13.948;2023-06-19T07:56:28;22.43;;;14.30;;
3993;SDS011;2011;48.238;13.948;2023-06-19T07:58:56;28.93;;;13.07;;
3993;SDS011;2011;48.238;13.948;2023-06-19T08:01:23;22.53;;;15.50;;
3993;SDS011;2011;48.238;13.948;2023-06-19T08:03:50;24.27;;;14.37;;
3993;SDS011;2011;48.238;13.948;2023-06-19T08:06:18;20.13;;;14.50;;
3993;SDS011;2011;48.238;13.948;2023-06-19T08:08:45;24.43;;;14.80;;
3993;SDS011;2011;48.238;13.948;2023-06-19T08:11:14;20.23;;;14.17;;
3993;SDS011;2011;48.238;13.948;2023-06-19T08:13:41;19.90;;;14.47;;
3993;SDS011;2011;48.238;13.948;2023-06-19T08:16:09;22.90;;;14.57;;
3993;SDS011;2011;48.238;13.948;2023-06-19T08:18:36;22.70;;;13.80;;
3993;SDS011;2011;48.238;13.948;2023-06-19T08:21:04;25.70;;;13.87;;
3993;SDS011;2011;48.238;13.948;2023-06-19T08:23:31;18.23;;;13.10;;
3993;SDS011;2011;48.238;13.948;2023-06-19T08:25:59;18.63;;;13.57;;
3993;SDS011;2011;48.238;13.948;2023-06-19T08:28:28;20.43;;;13.50;;
3993;SDS011;2011;48.238;13.948;2023-06-19T08:30:57;25.43;;;13.00;;
3993;SDS011;2011;48.238;13.948;2023-06-19T08:33:26;21.60;;;13.63;;
3993;SDS011;2011;48.238;13.948;2023-06-19T08:35:53;20.30;;;12.17;;
3993;SDS011;2011;48.238;13.948;2023-06-19T08:38:20;18.23;;;12.50;;
3993;SDS011;2011;48.238;13.948;2023-06-19T08:40:48;17.30;;;11.87;;
3993;SDS011;2011;48.238;13.948;2023-06-19T08:43:15;45.63;;;12.30;;
3993;SDS011;2011;48.238;13.948;2023-06-19T08:45:44;19.60;;;11.23;;
3993;SDS011;2011;48.238;13.948;2023-06-19T08:48:21;20.73;;;11.27;;
3993;SDS011;2011;48.238;13.948;2023-06-19T08:50:49;19.43;;;12.20;;
3993;SDS011;2011;48.238;13.948;2023-06-19T08:53:16;18.73;;;10.60;;
3993;SDS011;2011;48.238;13.948;2023-06-19T08:55:43;21.90;;;11.93;;
3993;SDS011;2011;48.238;13.948;2023-06-19T08:58:11;16.10;;;10.83;;
3993;SDS011;2011;48.238;13.948;2023-06-19T09:00:38;17.43;;;12.67;;
3993;SDS011;2011;48.238;13.948;2023-06-19T09:03:07;19.77;;;12.20;;
3993;SDS011;2011;48.238;13.948;2023-06-19T09:05:35;25.10;;;12.67;;
3993;SDS011;2011;48.238;13.948;2023-06-19T09:08:07;13.87;;;9.63;;
3993;SDS011;2011;48.238;13.948;2023-06-19T09:10:41;17.17;;;9.80;;
3993;SDS011;2011;48.238;13.948;2023-06-19T09:13:08;15.57;;;11.43;;
3993;SDS011;2011;48.238;13.948;2023-06-19T09:15:36;20.20;;;12.07;;
3993;SDS011;2011;48.238;13.948;2023-06-19T09:18:05;15.97;;;10.70;;
3993;SDS011;2011;48.238;13.948;2023-06-19T09:20:38;20.33;;;10.50;;
3993;SDS011;2011;48.238;13.948;2023-06-19T09:23:09;13.77;;;9.37;;
3993;SDS011;2011;48.238;13.948;2023-06-19T09:25:44;15.70;;;8.80;;
3993;SDS011;2011;48.238;13.948;2023-06-19T09:28:16;14.73;;;9.30;;
3993;SDS011;2011;48.238;13.948;2023-06-19T09:30:54;26.77;;;10.00;;
3993;SDS011;2011;48.238;13.948;2023-06-19T09:33:24;16.93;;;9.83;;
3993;SDS011;2011;48.238;13.948;2023-06-19T09:35:54;13.90;;;8.87;;
3993;SDS011;2011;48.238;13.948;2023-06-19T09:38:24;20.80;;;10.47;;
3993;SDS011;2011;48.238;13.948;2023-06-19T09:40:52;16.10;;;9.77;;
3993;SDS011;2011;48.238;13.948;2023-06-19T09:43:22;17.67;;;9.90;;
3993;SDS011;2011;48.238;13.948;2023-06-19T09:45:51;12.43;;;9.53;;
3993;SDS011;2011;48.238;13.948;2023-06-19T09:48:25;19.60;;;9.77;;
3993;SDS011;2011;48.238;13.948;2023-06-19T09:50:59;18.23;;;9.67;;
3993;SDS011;2011;48.238;13.948;2023-06-19T09:53:34;13.17;;;9.73;;
3993;SDS011;2011;48.238;13.948;2023-06-19T09:56:01;12.43;;;9.40;;
3993;SDS011;2011;48.238;13.948;2023-06-19T09:58:29;13.57;;;9.17;;
3993;SDS011;2011;48.238;13.948;2023-06-19T10:00:57;15.23;;;10.63;;
3993;SDS011;2011;48.238;13.948;2023-06-19T10:03:32;13.37;;;9.40;;
3993;SDS011;2011;48.238;13.948;2023-06-19T10:06:03;13.60;;;9.83;;
3993;SDS011;2011;48.238;13.948;2023-06-19T10:08:32;14.67;;;9.83;;
3993;SDS011;2011;48.238;13.948;2023-06-19T10:11:05;13.50;;;9.93;;
3993;SDS011;2011;48.238;13.948;2023-06-19T10:13:33;11.20;;;8.97;;
3993;SDS011;2011;48.238;13.948;2023-06-19T10:16:01;13.60;;;10.03;;
3993;SDS011;2011;48.238;13.948;2023-06-19T10:18:31;13.17;;;9.07;;
3993;SDS011;2011;48.238;13.948;2023-06-19T10:20:59;22.30;;;10.47;;
3993;SDS011;2011;48.238;13.948;2023-06-19T10:23:28;18.03;;;10.50;;
3993;SDS011;2011;48.238;13.948;2023-06-19T10:26:02;19.00;;;10.20;;
3993;SDS011;2011;48.238;13.948;2023-06-19T10:28:30;20.23;;;10.77;;
3993;SDS011;2011;48.238;13.948;2023-06-19T10:31:00;15.70;;;10.23;;
3993;SDS011;2011;48.238;13.948;2023-06-19T10:33:30;16.93;;;10.37;;
3993;SDS011;2011;48.238;13.948;2023-06-19T10:35:58;16.47;;;9.33;;
3993;SDS011;2011;48.238;13.948;2023-06-19T10:38:26;14.37;;;9.80;;
3993;SDS011;2011;48.238;13.948;2023-06-19T10:40:55;14.53;;;10.13;;
3993;SDS011;2011;48.238;13.948;2023-06-19T10:43:23;15.17;;;9.10;;
3993;SDS011;2011;48.238;13.948;2023-06-19T10:45:55;11.80;;;8.90;;
3993;SDS011;2011;48.238;13.948;2023-06-19T10:48:23;15.20;;;9.20;;
3993;SDS011;2011;48.238;13.948;2023-06-19T10:50:50;15.23;;;9.83;;
3993;SDS011;2011;48.238;13.948;2023-06-19T10:53:24;15.57;;;9.63;;
3993;SDS011;2011;48.238;13.948;2023-06-19T10:55:56;14.17;;;9.00;;
3993;SDS011;2011;48.238;13.948;2023-06-19T10:58:23;17.67;;;9.00;;
3993;SDS011;2011;48.238;13.948;2023-06-19T11:00:51;15.33;;;9.40;;
3993;SDS011;2011;48.238;13.948;2023-06-19T11:03:18;11.97;;;9.20;;
3993;SDS011;2011;48.238;13.948;2023-06-19T11:05:46;15.10;;;10.33;;
3993;SDS011;2011;48.238;13.948;2023-06-19T11:08:17;11.03;;;8.10;;
3993;SDS011;2011;48.238;13.948;2023-06-19T11:10:45;13.90;;;8.67;;
3993;SDS011;2011;48.238;13.948;2023-06-19T11:13:15;13.10;;;8.90;;
3993;SDS011;2011;48.238;13.948;2023-06-19T11:15:42;19.63;;;8.70;;
3993;SDS011;2011;48.238;13.948;2023-06-19T11:18:11;14.03;;;9.27;;
3993;SDS011;2011;48.238;13.948;2023-06-19T11:20:44;16.70;;;9.03;;
3993;SDS011;2011;48.238;13.948;2023-06-19T11:23:13;14.00;;;8.60;;
3993;SDS011;2011;48.238;13.948;2023-06-19T11:25:41;12.53;;;8.70;;
3993;SDS011;2011;48.238;13.948;2023-06-19T11:28:12;12.53;;;8.50;;
3993;SDS011;2011;48.238;13.948;2023-06-19T11:30:41;11.53;;;8.77;;
3993;SDS011;2011;48.238;13.948;2023-06-19T11:33:15;16.00;;;7.93;;
3993;SDS011;2011;48.238;13.948;2023-06-19T11:35:47;14.20;;;8.23;;
3993;SDS011;2011;48.238;13.948;2023-06-19T11:38:18;14.67;;;8.10;;
3993;SDS011;2011;48.238;13.948;2023-06-19T11:40:46;10.67;;;7.83;;
3993;SDS011;2011;48.238;13.948;2023-06-19T11:43:23;13.07;;;7.40;;
3993;SDS011;2011;48.238;13.948;2023-06-19T11:45:52;9.30;;;7.27;;
3993;SDS011;2011;48.238;13.948;2023-06-19T11:48:23;9.93;;;7.60;;
3993;SDS011;2011;48.238;13.948;2023-06-19T11:50:51;10.10;;;6.97;;
3993;SDS011;2011;48.238;13.948;2023-06-19T11:53:19;12.30;;;6.90;;
3993;SDS011;2011;48.238;13.948;2023-06-19T11:55:48;10.60;;;6.77;;
3993;SDS011;2011;48.238;13.948;2023-06-19T11:58:16;9.00;;;6.70;;
3993;SDS011;2011;48.238;13.948;2023-06-19T12:00:44;11.20;;;7.40;;
3993;SDS011;2011;48.238;13.948;2023-06-19T12:03:13;9.40;;;6.97;;
3993;SDS011;2011;48.238;13.948;2023-06-19T12:05:40;9.53;;;6.40;;
3993;SDS011;2011;48.238;13.948;2023-06-19T12:08:07;14.17;;;7.53;;
3993;SDS011;2011;48.238;13.948;2023-06-19T12:10:34;10.07;;;6.80;;
3993;SDS011;2011;48.238;13.948;2023-06-19T12:13:01;11.60;;;7.10;;
3993;SDS011;2011;48.238;13.948;2023-06-19T12:15:29;8.83;;;6.20;;
3993;SDS011;2011;48.238;13.948;2023-06-19T12:17:56;11.50;;;6.70;;
3993;SDS011;2011;48.238;13.948;2023-06-19T12:20:25;13.67;;;7.67;;
3993;SDS011;2011;48.238;13.948;2023-06-19T12:22:52;11.50;;;6.70;;
3993;SDS011;2011;48.238;13.948;2023-06-19T12:25:19;13.90;;;6.70;;
3993;SDS011;2011;48.238;13.948;2023-06-19T12:27:46;11.80;;;6.33;;
3993;SDS011;2011;48.238;13.948;2023-06-19T12:30:15;9.67;;;7.10;;
3993;SDS011;2011;48.238;13.948;2023-06-19T12:32:42;12.80;;;6.80;;
3993;SDS011;2011;48.238;13.948;2023-06-19T12:35:09;14.13;;;6.50;;
3993;SDS011;2011;48.238;13.948;2023-06-19T12:37:38;11.60;;;6.60;;
3993;SDS011;2011;48.238;13.948;2023-06-19T12:40:06;9.93;;;6.27;;
3993;SDS011;2011;48.238;13.948;2023-06-19T12:42:36;11.67;;;6.03;;
3993;SDS011;2011;48.238;13.948;2023-06-19T12:45:04;9.53;;;6.07;;
3993;SDS011;2011;48.238;13.948;2023-06-19T12:47:32;10.90;;;6.33;;
3993;SDS011;2011;48.238;13.948;2023-06-19T12:50:00;10.03;;;6.40;;
3993;SDS011;2011;48.238;13.948;2023-06-19T12:52:27;8.90;;;6.27;;
3993;SDS011;2011;48.238;13.948;2023-06-19T12:54:57;10.70;;;6.27;;
3993;SDS011;2011;48.238;13.948;2023-06-19T12:57:26;7.83;;;5.60;;
3993;SDS011;2011;48.238;13.948;2023-06-19T12:59:54;8.30;;;6.40;;
3993;SDS011;2011;48.238;13.948;2023-06-19T13:02:21;10.97;;;6.57;;
3993;SDS011;2011;48.238;13.948;2023-06-19T13:04:49;10.90;;;6.20;;
3993;SDS011;2011;48.238;13.948;2023-06-19T13:07:17;8.23;;;6.20;;
3993;SDS011;2011;48.238;13.948;2023-06-19T13:09:45;8.80;;;6.00;;
3993;SDS011;2011;48.238;13.948;2023-06-19T13:12:14;9.00;;;5.90;;
3993;SDS011;2011;48.238;13.948;2023-06-19T13:14:41;10.10;;;6.17;;
3993;SDS011;2011;48.238;13.948;2023-06-19T13:17:09;8.40;;;5.73;;
3993;SDS011;2011;48.238;13.948;2023-06-19T13:19:36;8.77;;;6.27;;
3993;SDS011;2011;48.238;13.948;2023-06-19T13:22:04;9.13;;;6.10;;
3993;SDS011;2011;48.238;13.948;2023-06-19T13:24:31;12.70;;;6.33;;
3993;SDS011;2011;48.238;13.948;2023-06-19T13:26:58;9.63;;;6.00;;
3993;SDS011;2011;48.238;13.948;2023-06-19T13:29:27;8.37;;;5.60;;
3993;SDS011;2011;48.238;13.948;2023-06-19T13:31:55;11.40;;;5.70;;
3993;SDS011;2011;48.238;13.948;2023-06-19T13:34:22;8.10;;;5.97;;
3993;SDS011;2011;48.238;13.948;2023-06-19T13:36:49;7.13;;;5.53;;
3993;SDS011;2011;48.238;13.948;2023-06-19T13:39:17;11.50;;;5.77;;
3993;SDS011;2011;48.238;13.948;2023-06-19T13:41:45;8.03;;;6.03;;
3993;SDS011;2011;48.238;13.948;2023-06-19T13:44:14;7.07;;;5.90;;
3993;SDS011;2011;48.238;13.948;2023-06-19T13:46:43;8.37;;;5.10;;
3993;SDS011;2011;48.238;13.948;2023-06-19T13:49:10;10.33;;;5.90;;
3993;SDS011;2011;48.238;13.948;2023-06-19T13:51:39;6.80;;;5.60;;
3993;SDS011;2011;48.238;13.948;2023-06-19T13:54:06;10.77;;;6.10;;
3993;SDS011;2011;48.238;13.948;2023-06-19T13:56:34;7.80;;;5.97;;
3993;SDS011;2011;48.238;13.948;2023-06-19T13:59:02;9.97;;;5.50;;
3993;SDS011;2011;48.238;13.948;2023-06-19T14:01:30;8.33;;;5.53;;
3993;SDS011;2011;48.238;13.948;2023-06-19T14:04:00;7.30;;;5.20;;
3993;SDS011;2011;48.238;13.948;2023-06-19T14:06:27;8.83;;;5.90;;
3993;SDS011;2011;48.238;13.948;2023-06-19T14:08:55;8.90;;;6.20;;
3993;SDS011;2011;48.238;13.948;2023-06-19T14:11:22;9.80;;;5.83;;
3993;SDS011;2011;48.238;13.948;2023-06-19T14:13:50;10.77;;;5.67;;
3993;SDS011;2011;48.238;13.948;2023-06-19T14:16:18;7.40;;;5.33;;
3993;SDS011;2011;48.238;13.948;2023-06-19T14:18:46;8.23;;;5.93;;
3993;SDS011;2011;48.238;13.948;2023-06-19T14:21:15;8.83;;;6.00;;
3993;SDS011;2011;48.238;13.948;2023-06-19T14:23:42;6.90;;;5.47;;
3993;SDS011;2011;48.238;13.948;2023-06-19T14:26:09;8.10;;;5.67;;
3993;SDS011;2011;48.238;13.948;2023-06-19T14:28:37;7.80;;;5.37;;
3993;SDS011;2011;48.238;13.948;2023-06-19T14:31:05;9.87;;;5.70;;
3993;SDS011;2011;48.238;13.948;2023-06-19T14:33:32;8.70;;;5.33;;
3993;SDS011;2011;48.238;13.948;2023-06-19T14:36:00;16.23;;;5.90;;
3993;SDS011;2011;48.238;13.948;2023-06-19T14:38:29;9.80;;;5.73;;
3993;SDS011;2011;48.238;13.948;2023-06-19T14:40:58;9.07;;;5.53;;
3993;SDS011;2011;48.238;13.948;2023-06-19T14:43:26;10.47;;;5.80;;
3993;SDS011;2011;48.238;13.948;2023-06-19T14:45:53;8.57;;;5.60;;
3993;SDS011;2011;48.238;13.948;2023-06-19T14:48:20;13.83;;;5.80;;